createdAt,value
2023-07-11T00:00:19.355Z,227.49
2023-07-11T00:01:19.593Z,226.29
2023-07-11T00:02:19.717Z,225.35
2023-07-11T00:03:19.929Z,225.66
2023-07-11T00:04:20.016Z,225.11
2023-07-11T00:05:20.204Z,225.68
2023-07-11T00:06:20.382Z,225.91
2023-07-11T00:07:20.561Z,226.58
2023-07-11T00:08:20.729Z,226.95
2023-07-11T00:09:20.895Z,227.07
2023-07-11T00:10:21.064Z,223.30
2023-07-11T00:11:21.208Z,220.68
2023-07-11T00:12:21.344Z,219.42
2023-07-11T00:13:21.462Z,219.70
2023-07-11T00:14:21.606Z,220.39
2023-07-11T00:15:21.722Z,221.15
2023-07-11T00:16:21.917Z,223.37
2023-07-11T00:17:22.036Z,223.43
2023-07-11T00:18:22.151Z,223.56
2023-07-11T00:19:22.289Z,222.60
2023-07-11T00:20:22.432Z,220.71
2023-07-11T00:21:22.540Z,220.83
2023-07-11T00:22:22.673Z,219.99
2023-07-11T00:23:22.811Z,220.21
2023-07-11T00:24:22.954Z,219.41
2023-07-11T00:25:23.068Z,219.94
2023-07-11T00:26:23.231Z,220.35
2023-07-11T00:27:23.376Z,220.45
2023-07-11T00:28:23.504Z,220.35
2023-07-11T00:29:23.629Z,220.51
2023-07-11T00:30:23.799Z,219.55
2023-07-11T00:31:23.933Z,219.63
2023-07-11T00:32:24.044Z,218.21
2023-07-11T00:33:24.138Z,219.17
2023-07-11T00:34:24.282Z,219.93
2023-07-11T00:35:24.402Z,220.18
2023-07-11T00:36:24.525Z,220.71
2023-07-11T00:37:24.648Z,221.55
2023-07-11T00:38:24.781Z,221.73
2023-07-11T00:39:24.952Z,223.12
2023-07-11T00:40:25.062Z,224.26
2023-07-11T00:41:25.212Z,224.24
2023-07-11T00:42:25.361Z,226.89
2023-07-11T00:43:25.482Z,233.30
2023-07-11T00:44:25.622Z,235.57
2023-07-11T00:45:25.757Z,236.85
2023-07-11T00:46:25.910Z,237.88
2023-07-11T00:47:26.090Z,235.42
2023-07-11T00:48:26.206Z,233.60
2023-07-11T00:49:26.369Z,230.41
2023-07-11T00:50:26.560Z,229.39
2023-07-11T00:51:26.685Z,230.29
2023-07-11T00:52:26.857Z,231.28
2023-07-11T00:53:26.996Z,231.08
2023-07-11T00:54:27.164Z,231.49
2023-07-11T00:55:27.314Z,230.51
2023-07-11T00:56:27.451Z,230.02
2023-07-11T00:57:27.627Z,228.88
2023-07-11T00:58:27.760Z,229.05
2023-07-11T00:59:27.931Z,228.36
2023-07-11T01:00:28.137Z,226.78
2023-07-11T01:01:28.274Z,223.94
2023-07-11T01:02:28.593Z,222.54
2023-07-11T01:03:28.748Z,226.83
2023-07-11T01:04:28.791Z,228.38
2023-07-11T01:05:29.004Z,229.28
2023-07-11T01:06:29.174Z,229.64
2023-07-11T01:07:29.405Z,229.85
2023-07-11T01:08:29.517Z,230.77
2023-07-11T01:09:29.679Z,232.03
2023-07-11T01:10:29.829Z,229.70
2023-07-11T01:11:29.998Z,226.67
2023-07-11T01:12:30.428Z,222.73
2023-07-11T01:13:30.408Z,221.29
2023-07-11T01:14:30.603Z,221.29
2023-07-11T01:15:30.741Z,222.04
2023-07-11T01:16:31.477Z,224.69
2023-07-11T01:17:31.051Z,225.56
2023-07-11T01:18:31.246Z,225.43
2023-07-11T01:19:31.391Z,222.79
2023-07-11T01:20:31.577Z,220.74
2023-07-11T01:21:31.748Z,218.36
2023-07-11T01:22:31.963Z,218.69
2023-07-11T01:23:32.113Z,219.09
2023-07-11T01:24:32.276Z,220.02
2023-07-11T01:25:32.467Z,222.20
2023-07-11T01:26:32.682Z,224.55
2023-07-11T01:27:32.868Z,226.80
2023-07-11T01:28:33.057Z,228.86
2023-07-11T01:29:33.256Z,228.57
2023-07-11T01:30:34.475Z,227.49
2023-07-11T01:31:33.699Z,227.41
2023-07-11T01:32:33.885Z,226.81
2023-07-11T01:33:34.037Z,226.31
2023-07-11T01:34:34.140Z,226.72
2023-07-11T01:35:34.249Z,226.58
2023-07-11T01:36:34.393Z,223.61
2023-07-11T01:37:34.527Z,220.28
2023-07-11T01:38:34.644Z,217.82
2023-07-11T01:39:34.784Z,216.28
2023-07-11T01:40:34.918Z,216.66
2023-07-11T01:41:35.073Z,216.60
2023-07-11T01:42:35.187Z,217.99
2023-07-11T01:43:35.405Z,217.68
2023-07-11T01:44:35.569Z,215.37
2023-07-11T01:45:35.789Z,215.59
2023-07-11T01:46:36.037Z,215.60
2023-07-11T01:47:36.236Z,218.28
2023-07-11T01:48:36.396Z,220.58
2023-07-11T01:49:36.531Z,221.57
2023-07-11T01:50:36.674Z,223.25
2023-07-11T01:51:36.846Z,224.37
2023-07-11T01:52:36.995Z,224.26
2023-07-11T01:53:37.151Z,223.15
2023-07-11T01:54:37.343Z,223.07
2023-07-11T01:55:37.468Z,225.01
2023-07-11T01:56:37.632Z,225.97
2023-07-11T01:57:37.944Z,226.38
2023-07-11T01:58:37.888Z,227.47
2023-07-11T01:59:38.083Z,227.25
2023-07-11T02:00:38.184Z,225.32
2023-07-11T02:01:38.365Z,225.69
2023-07-11T02:02:38.648Z,225.58
2023-07-11T02:03:38.819Z,224.49
2023-07-11T02:04:38.901Z,225.40
2023-07-11T02:05:39.105Z,225.38
2023-07-11T02:06:39.254Z,226.42
2023-07-11T02:07:39.424Z,224.93
2023-07-11T02:08:39.569Z,225.00
2023-07-11T02:09:39.733Z,226.57
2023-07-11T02:10:39.860Z,226.64
2023-07-11T02:11:40.016Z,227.29
2023-07-11T02:12:40.170Z,228.57
2023-07-11T02:13:40.318Z,230.06
2023-07-11T02:14:40.422Z,231.29
2023-07-11T02:15:40.562Z,231.78
2023-07-11T02:16:40.803Z,231.29
2023-07-11T02:17:40.966Z,229.75
2023-07-11T02:18:40.972Z,229.24
2023-07-11T02:19:41.145Z,225.84
2023-07-11T02:20:41.287Z,226.17
2023-07-11T02:21:41.939Z,223.94
2023-07-11T02:22:41.530Z,220.91
2023-07-11T02:23:41.682Z,219.92
2023-07-11T02:24:41.803Z,219.00
2023-07-11T02:25:41.968Z,217.46
2023-07-11T02:26:42.087Z,218.45
2023-07-11T02:27:42.225Z,220.50
2023-07-11T02:28:42.362Z,221.02
2023-07-11T02:29:42.496Z,222.22
2023-07-11T02:30:42.634Z,222.29
2023-07-11T02:31:42.847Z,222.76
2023-07-11T02:32:42.989Z,221.67
2023-07-11T02:33:43.070Z,222.47
2023-07-11T02:34:43.222Z,223.31
2023-07-11T02:35:43.391Z,223.64
2023-07-11T02:36:43.568Z,224.47
2023-07-11T02:37:43.785Z,225.13
2023-07-11T02:38:44.000Z,226.06
2023-07-11T02:39:44.179Z,227.91
2023-07-11T02:40:44.382Z,227.83
2023-07-11T02:41:44.578Z,227.69
2023-07-11T02:42:44.747Z,227.42
2023-07-11T02:43:44.930Z,229.35
2023-07-11T02:44:45.117Z,232.96
2023-07-11T02:45:45.360Z,235.51
2023-07-11T02:46:45.494Z,238.85
2023-07-11T02:47:45.739Z,238.51
2023-07-11T02:48:45.886Z,234.05
2023-07-11T02:49:46.106Z,230.96
2023-07-11T02:50:46.326Z,229.19
2023-07-11T02:51:46.510Z,225.60
2023-07-11T02:52:46.679Z,224.73
2023-07-11T02:53:46.909Z,224.62
2023-07-11T02:54:47.066Z,224.62
2023-07-11T02:55:47.246Z,224.79
2023-07-11T02:56:47.417Z,223.27
2023-07-11T02:57:47.644Z,219.57
2023-07-11T02:58:47.782Z,216.72
2023-07-11T02:59:47.975Z,216.65
2023-07-11T03:00:48.182Z,218.45
2023-07-11T03:01:48.339Z,220.55
2023-07-11T03:02:48.630Z,223.15
2023-07-11T03:03:48.731Z,226.51
2023-07-11T03:04:48.937Z,229.99
2023-07-11T03:05:49.113Z,231.42
2023-07-11T03:06:49.300Z,230.85
2023-07-11T03:07:49.516Z,228.15
2023-07-11T03:08:49.737Z,229.15
2023-07-11T03:09:49.923Z,233.02
2023-07-11T03:10:50.101Z,235.39
2023-07-11T03:11:50.307Z,236.54
2023-07-11T03:12:50.583Z,237.43
2023-07-11T03:13:50.723Z,238.39
2023-07-11T03:14:50.927Z,233.65
2023-07-11T03:15:51.153Z,232.68
2023-07-11T03:16:51.313Z,229.44
2023-07-11T03:17:51.496Z,226.72
2023-07-11T03:18:51.617Z,224.61
2023-07-11T03:19:51.812Z,222.61
2023-07-11T03:20:51.983Z,220.31
2023-07-11T03:21:52.177Z,220.37
2023-07-11T03:22:52.339Z,218.00
2023-07-11T03:23:52.551Z,217.80
2023-07-11T03:24:52.753Z,219.50
2023-07-11T03:25:52.978Z,219.71
2023-07-11T03:26:53.170Z,220.48
2023-07-11T03:27:53.377Z,220.25
2023-07-11T03:28:53.576Z,218.90
2023-07-11T03:29:53.813Z,217.12
2023-07-11T03:30:54.028Z,218.74
2023-07-11T03:31:54.208Z,218.97
2023-07-11T03:32:54.430Z,219.89
2023-07-11T03:33:54.604Z,221.11
2023-07-11T03:35:02.650Z,219.10
2023-07-11T03:35:55.931Z,217.50
2023-07-11T03:36:55.067Z,218.06
2023-07-11T03:37:55.220Z,219.39
2023-07-11T03:38:55.362Z,220.07
2023-07-11T03:39:55.552Z,219.60
2023-07-11T03:40:55.634Z,222.07
2023-07-11T03:41:55.777Z,224.85
2023-07-11T03:42:55.949Z,227.04
2023-07-11T03:43:56.086Z,228.28
2023-07-11T03:44:56.194Z,227.40
2023-07-11T03:45:56.394Z,225.98
2023-07-11T03:46:56.575Z,225.72
2023-07-11T03:47:56.768Z,225.82
2023-07-11T03:48:56.871Z,226.39
2023-07-11T03:49:56.997Z,227.17
2023-07-11T03:50:57.961Z,228.28
2023-07-11T03:51:57.295Z,230.78
2023-07-11T03:52:57.419Z,227.67
2023-07-11T03:53:57.560Z,225.26
2023-07-11T03:54:57.707Z,225.80
2023-07-11T03:55:57.887Z,227.27
2023-07-11T03:56:58.025Z,229.00
2023-07-11T03:57:58.199Z,230.04
2023-07-11T03:58:58.394Z,230.42
2023-07-11T03:59:58.622Z,231.36
2023-07-11T04:00:58.821Z,229.19
2023-07-11T04:01:59.048Z,228.88
2023-07-11T04:02:59.237Z,228.19
2023-07-11T04:03:59.356Z,229.31
2023-07-11T04:04:59.433Z,229.41
2023-07-11T04:05:59.594Z,229.98
2023-07-11T04:06:59.730Z,230.90
2023-07-11T04:07:59.882Z,232.27
2023-07-11T04:09:00.037Z,234.57
2023-07-11T04:10:00.194Z,233.95
2023-07-11T04:11:00.303Z,234.71
2023-07-11T04:12:00.427Z,237.89
2023-07-11T04:13:00.569Z,238.36
2023-07-11T04:14:00.780Z,238.41
2023-07-11T04:15:00.879Z,240.45
2023-07-11T04:16:01.013Z,242.38
2023-07-11T04:17:01.257Z,245.71
2023-07-11T04:18:01.359Z,247.45
2023-07-11T04:19:01.487Z,247.00
2023-07-11T04:20:01.689Z,245.08
2023-07-11T04:21:01.904Z,242.74
2023-07-11T04:22:02.100Z,241.21
2023-07-11T04:23:02.306Z,240.70
2023-07-11T04:24:02.465Z,240.87
2023-07-11T04:25:02.613Z,240.33
2023-07-11T04:26:02.794Z,240.50
2023-07-11T04:27:02.922Z,240.50
2023-07-11T04:28:03.096Z,241.02
2023-07-11T04:29:03.288Z,241.56
2023-07-11T04:30:03.480Z,244.50
2023-07-11T04:31:03.699Z,248.45
2023-07-11T04:32:03.887Z,250.00
2023-07-11T04:33:04.188Z,249.80
2023-07-11T04:34:04.293Z,250.00
2023-07-11T04:35:04.566Z,249.06
2023-07-11T04:36:04.605Z,248.38
2023-07-11T04:37:04.781Z,247.58
2023-07-11T04:38:04.929Z,245.46
2023-07-11T04:39:05.099Z,243.41
2023-07-11T04:40:05.279Z,241.43
2023-07-11T04:41:05.404Z,238.16
2023-07-11T04:42:05.576Z,236.18
2023-07-11T04:43:05.719Z,234.98
2023-07-11T04:44:05.894Z,234.17
2023-07-11T04:45:06.029Z,237.17
2023-07-11T04:46:06.552Z,239.31
2023-07-11T04:47:06.425Z,240.94
2023-07-11T04:48:06.617Z,243.03
2023-07-11T04:49:06.782Z,245.83
2023-07-11T04:50:06.967Z,246.62
2023-07-11T04:51:07.168Z,247.27
2023-07-11T04:52:07.320Z,250.00
2023-07-11T04:53:07.500Z,249.89
2023-07-11T04:54:07.703Z,249.35
2023-07-11T04:55:07.861Z,249.62
2023-07-11T04:56:08.288Z,249.77
2023-07-11T04:57:08.238Z,249.98
2023-07-11T04:58:08.401Z,249.63
2023-07-11T04:59:08.556Z,248.62
2023-07-11T05:00:08.734Z,246.14
2023-07-11T05:01:08.910Z,244.52
2023-07-11T05:02:09.065Z,244.32
2023-07-11T05:03:09.293Z,244.83
2023-07-11T05:04:09.393Z,245.43
2023-07-11T05:05:09.460Z,245.47
2023-07-11T05:06:10.171Z,244.37
2023-07-11T05:07:09.721Z,242.10
2023-07-11T05:08:09.844Z,240.46
2023-07-11T05:09:09.955Z,240.23
2023-07-11T05:10:10.120Z,239.72
2023-07-11T05:11:10.231Z,243.51
2023-07-11T05:12:10.325Z,246.39
2023-07-11T05:13:11.504Z,248.70
2023-07-11T05:14:10.699Z,250.00
2023-07-11T05:15:10.704Z,250.12
2023-07-11T05:16:11.030Z,250.65
2023-07-11T05:17:11.087Z,250.89
2023-07-11T05:18:11.080Z,250.08
2023-07-11T05:19:11.183Z,248.98
2023-07-11T05:20:11.295Z,247.79
2023-07-11T05:21:11.424Z,247.13
2023-07-11T05:22:11.550Z,246.85
2023-07-11T05:23:11.670Z,246.63
2023-07-11T05:24:11.949Z,246.34
2023-07-11T05:25:12.020Z,247.92
2023-07-11T05:26:12.196Z,248.50
2023-07-11T05:27:12.334Z,249.54
2023-07-11T05:28:12.472Z,249.92
2023-07-11T05:29:12.643Z,249.89
2023-07-11T05:30:12.818Z,249.40
2023-07-11T05:31:13.042Z,248.81
2023-07-11T05:32:13.165Z,247.07
2023-07-11T05:33:13.285Z,245.20
2023-07-11T05:34:13.466Z,244.21
2023-07-11T05:35:13.630Z,243.34
2023-07-11T05:36:13.805Z,244.53
2023-07-11T05:37:13.995Z,242.32
2023-07-11T05:38:14.221Z,242.19
2023-07-11T05:39:14.292Z,242.11
2023-07-11T05:40:14.456Z,241.19
2023-07-11T05:41:14.636Z,240.95
2023-07-11T05:42:14.800Z,240.07
2023-07-11T05:43:15.018Z,238.61
2023-07-11T05:44:15.146Z,241.64
2023-07-11T05:45:15.252Z,241.80
2023-07-11T05:46:15.444Z,242.36
2023-07-11T05:47:15.523Z,243.42
2023-07-11T05:48:15.693Z,244.63
2023-07-11T05:49:15.732Z,245.39
2023-07-11T05:50:15.845Z,245.63
2023-07-11T05:51:15.950Z,244.75
2023-07-11T05:52:16.067Z,245.66
2023-07-11T05:53:16.201Z,247.05
2023-07-11T05:54:16.312Z,248.34
2023-07-11T05:55:16.396Z,249.24
2023-07-11T05:56:16.609Z,250.00
2023-07-11T05:57:16.715Z,249.64
2023-07-11T05:58:16.865Z,247.23
2023-07-11T05:59:17.058Z,244.29
2023-07-11T06:00:17.156Z,242.81
2023-07-11T06:01:17.320Z,241.71
2023-07-11T06:02:17.445Z,242.63
2023-07-11T06:03:17.663Z,243.56
2023-07-11T06:04:17.727Z,242.28
2023-07-11T06:05:17.945Z,240.89
2023-07-11T06:06:18.097Z,243.27
2023-07-11T06:07:18.291Z,247.27
2023-07-11T06:08:18.499Z,250.00
2023-07-11T06:09:18.670Z,249.92
2023-07-11T06:10:18.757Z,248.59
2023-07-11T06:11:18.921Z,249.96
2023-07-11T06:12:19.058Z,250.00
2023-07-11T06:13:19.524Z,250.00
2023-07-11T06:14:19.352Z,250.00
2023-07-11T06:15:19.410Z,250.00
2023-07-11T06:16:19.575Z,247.37
2023-07-11T06:17:19.665Z,241.05
2023-07-11T06:18:19.814Z,236.59
2023-07-11T06:19:19.903Z,234.91
2023-07-11T06:20:20.044Z,239.52
2023-07-11T06:21:20.112Z,240.81
2023-07-11T06:22:20.170Z,240.33
2023-07-11T06:23:20.242Z,235.52
2023-07-11T06:24:20.332Z,236.33
2023-07-11T06:25:20.377Z,240.68
2023-07-11T06:26:20.414Z,225.72
2023-07-11T06:27:20.482Z,235.02
2023-07-11T06:28:20.610Z,232.09
2023-07-11T06:29:20.593Z,231.46
2023-07-11T06:30:20.689Z,231.19
2023-07-11T06:31:20.738Z,228.71
2023-07-11T06:32:20.787Z,221.06
2023-07-11T06:33:20.822Z,215.60
2023-07-11T06:34:20.837Z,221.85
2023-07-11T06:35:21.042Z,222.31
2023-07-11T06:36:21.051Z,223.59
2023-07-11T06:37:21.116Z,218.98
2023-07-11T06:38:21.244Z,211.88
2023-07-11T06:39:21.366Z,209.24
2023-07-11T06:40:21.495Z,206.53
2023-07-11T06:41:21.541Z,200.53
2023-07-11T06:42:21.612Z,197.50
2023-07-11T06:43:21.741Z,195.29
2023-07-11T06:44:21.808Z,193.29
2023-07-11T06:45:21.844Z,189.35
2023-07-11T06:46:21.889Z,191.28
2023-07-11T06:47:22.110Z,189.56
2023-07-11T06:48:22.021Z,185.53
2023-07-11T06:49:22.058Z,191.14
2023-07-11T06:50:23.000Z,193.96
2023-07-11T06:51:23.025Z,182.48
2023-07-11T06:52:22.197Z,165.80
2023-07-11T06:53:22.274Z,159.32
2023-07-11T06:54:22.308Z,161.15
2023-07-11T06:55:22.481Z,148.17
2023-07-11T06:56:22.513Z,146.14
2023-07-11T06:57:22.546Z,138.01
2023-07-11T06:58:22.621Z,122.50
2023-07-11T06:59:22.658Z,110.49
2023-07-11T07:00:22.821Z,132.72
2023-07-11T07:01:35.469Z,133.54
2023-07-11T07:02:23.952Z,133.69
2023-07-11T07:03:22.945Z,135.18
2023-07-11T07:04:22.968Z,131.03
2023-07-11T07:05:22.900Z,115.29
2023-07-11T07:06:22.966Z,105.77
2023-07-11T07:07:22.946Z,117.23
2023-07-11T07:08:22.982Z,116.90
2023-07-11T07:09:24.506Z,128.73
2023-07-11T07:10:23.007Z,129.35
2023-07-11T07:11:23.063Z,127.64
2023-07-11T07:12:22.979Z,122.43
2023-07-11T07:13:23.082Z,120.12
2023-07-11T07:14:23.055Z,116.25
2023-07-11T07:15:23.051Z,92.15
2023-07-11T07:16:23.077Z,93.61
2023-07-11T07:17:23.164Z,80.90
2023-07-11T07:18:23.029Z,75.01
2023-07-11T07:19:23.023Z,75.12
2023-07-11T07:20:23.006Z,77.60
2023-07-11T07:21:22.989Z,85.18
2023-07-11T07:22:22.990Z,100.66
2023-07-11T07:23:23.014Z,115.51
2023-07-11T07:24:23.130Z,115.32
2023-07-11T07:25:25.008Z,98.40
2023-07-11T07:26:22.972Z,81.61
2023-07-11T07:27:28.204Z,93.91
2023-07-11T07:28:24.067Z,83.96
2023-07-11T07:29:22.950Z,73.19
2023-07-11T07:30:23.073Z,66.75
2023-07-11T07:31:23.610Z,66.33
2023-07-11T07:32:23.011Z,72.24
2023-07-11T07:33:23.127Z,79.41
2023-07-11T07:34:22.980Z,78.39
2023-07-11T07:35:22.840Z,59.64
2023-07-11T07:36:22.852Z,50.17
2023-07-11T07:37:22.835Z,47.90
2023-07-11T07:38:22.844Z,60.37
2023-07-11T07:39:22.871Z,64.37
2023-07-11T07:40:22.895Z,56.87
2023-07-11T07:41:22.991Z,49.51
2023-07-11T07:42:22.941Z,60.68
2023-07-11T07:43:22.981Z,59.81
2023-07-11T07:44:22.992Z,45.92
2023-07-11T07:45:23.020Z,44.00
2023-07-11T07:46:23.059Z,54.91
2023-07-11T07:47:23.072Z,52.36
2023-07-11T07:48:22.992Z,42.42
2023-07-11T07:49:22.978Z,42.78
2023-07-11T07:50:23.138Z,48.35
2023-07-11T07:51:23.043Z,29.91
2023-07-11T07:52:23.114Z,47.09
2023-07-11T07:53:23.277Z,48.61
2023-07-11T07:54:23.165Z,66.10
2023-07-11T07:55:23.195Z,57.68
2023-07-11T07:56:23.205Z,28.43
2023-07-11T07:57:23.243Z,30.93
2023-07-11T07:58:40.535Z,41.15
2023-07-11T07:59:24.204Z,41.53
2023-07-11T08:00:23.263Z,43.03
2023-07-11T08:01:23.111Z,41.74
2023-07-11T08:02:23.248Z,45.77
2023-07-11T08:03:23.181Z,54.44
2023-07-11T08:04:23.166Z,61.21
2023-07-11T08:05:23.036Z,56.95
2023-07-11T08:06:23.596Z,49.41
2023-07-11T08:07:22.994Z,44.04
2023-07-11T08:08:23.005Z,34.54
2023-07-11T08:09:22.974Z,25.34
2023-07-11T08:10:23.026Z,27.04
2023-07-11T08:11:23.036Z,34.08
2023-07-11T08:12:22.999Z,38.13
2023-07-11T08:13:22.985Z,44.11
2023-07-11T08:14:22.970Z,64.02
2023-07-11T08:15:22.861Z,75.54
2023-07-11T08:16:29.602Z,79.08
2023-07-11T08:17:23.873Z,76.88
2023-07-11T08:18:22.866Z,78.83
2023-07-11T08:19:22.775Z,80.77
2023-07-11T08:20:22.851Z,84.05
2023-07-11T08:21:22.773Z,77.52
2023-07-11T08:22:22.698Z,78.85
2023-07-11T08:23:22.802Z,66.14
2023-07-11T08:24:22.680Z,77.84
2023-07-11T08:25:22.632Z,66.92
2023-07-11T08:26:22.663Z,54.80
2023-07-11T08:27:22.579Z,61.91
2023-07-11T08:28:22.566Z,48.56
2023-07-11T08:29:29.659Z,61.81
2023-07-11T08:30:23.468Z,56.80
2023-07-11T08:31:22.536Z,54.14
2023-07-11T08:32:22.485Z,51.44
2023-07-11T08:33:22.341Z,39.23
2023-07-11T08:34:22.319Z,36.48
2023-07-11T08:35:22.279Z,35.88
2023-07-11T08:36:22.243Z,39.64
2023-07-11T08:37:22.210Z,44.16
2023-07-11T08:38:22.179Z,35.42
2023-07-11T08:39:22.147Z,41.59
2023-07-11T08:40:31.208Z,38.41
2023-07-11T08:41:23.077Z,38.52
2023-07-11T08:42:22.022Z,39.93
2023-07-11T08:43:21.992Z,42.92
2023-07-11T08:44:21.953Z,48.94
2023-07-11T08:45:21.925Z,43.15
2023-07-11T08:46:21.914Z,39.82
2023-07-11T08:47:21.862Z,49.68
2023-07-11T08:48:21.818Z,53.22
2023-07-11T08:49:21.791Z,64.58
2023-07-11T08:50:21.730Z,54.38
2023-07-11T08:51:21.680Z,54.76
2023-07-11T08:52:21.666Z,44.17
2023-07-11T08:53:21.623Z,47.46
2023-07-11T08:54:22.499Z,48.58
2023-07-11T08:55:21.505Z,41.52
2023-07-11T08:56:21.460Z,37.65
2023-07-11T08:57:21.393Z,13.55
2023-07-11T08:58:21.399Z,10.74
2023-07-11T08:59:21.321Z,26.33
2023-07-11T09:00:21.291Z,25.76
2023-07-11T09:01:21.253Z,12.59
2023-07-11T09:02:21.212Z,19.13
2023-07-11T09:03:21.170Z,12.95
2023-07-11T09:04:21.147Z,9.49
2023-07-11T09:05:21.030Z,32.24
2023-07-11T09:06:20.992Z,31.15
2023-07-11T09:07:20.930Z,23.82
2023-07-11T09:08:20.876Z,20.57
2023-07-11T09:09:20.833Z,2.95
2023-07-11T09:10:21.593Z,4.82
2023-07-11T09:11:20.722Z,12.04
2023-07-11T09:12:20.685Z,17.46
2023-07-11T09:13:20.665Z,24.20
2023-07-11T09:14:20.597Z,29.55
2023-07-11T09:15:20.548Z,30.50
2023-07-11T09:16:20.531Z,10.39
2023-07-11T09:17:20.434Z,7.47
2023-07-11T09:18:20.404Z,7.63
2023-07-11T09:19:20.336Z,9.38
2023-07-11T09:20:20.323Z,11.90
2023-07-11T09:21:20.267Z,20.02
2023-07-11T09:22:20.198Z,13.97
2023-07-11T09:23:37.071Z,15.00
2023-07-11T09:24:22.543Z,12.94
2023-07-11T09:25:20.270Z,15.79
2023-07-11T09:26:20.282Z,22.01
2023-07-11T09:27:20.243Z,23.58
2023-07-11T09:28:20.248Z,24.32
2023-07-11T09:29:20.211Z,17.95
2023-07-11T09:30:20.248Z,19.58
2023-07-11T09:31:20.337Z,22.72
2023-07-11T09:32:20.397Z,24.48
2023-07-11T09:33:20.357Z,26.32
2023-07-11T09:34:20.285Z,26.74
2023-07-11T09:35:20.260Z,29.17
2023-07-11T09:36:20.256Z,22.76
2023-07-11T09:37:20.259Z,24.98
2023-07-11T09:38:20.258Z,31.16
2023-07-11T09:39:20.254Z,29.83
2023-07-11T09:40:20.241Z,24.14
2023-07-11T09:41:20.201Z,20.25
2023-07-11T09:42:20.160Z,32.07
2023-07-11T09:43:20.132Z,30.03
2023-07-11T09:44:20.136Z,26.27
2023-07-11T09:45:20.164Z,23.48
2023-07-11T09:46:20.183Z,17.19
2023-07-11T09:47:20.141Z,27.28
2023-07-11T09:48:20.145Z,23.43
2023-07-11T09:49:20.111Z,19.96
2023-07-11T09:50:25.851Z,30.80
2023-07-11T09:51:21.106Z,30.94
2023-07-11T09:52:20.053Z,32.14
2023-07-11T09:53:20.032Z,32.11
2023-07-11T09:54:20.009Z,19.79
2023-07-11T09:55:20.011Z,11.49
2023-07-11T09:56:20.196Z,8.19
2023-07-11T09:57:20.021Z,11.17
2023-07-11T09:58:19.891Z,18.54
2023-07-11T09:59:19.889Z,22.36
2023-07-11T10:00:23.050Z,30.52
2023-07-11T10:01:19.865Z,28.73
2023-07-11T10:02:19.814Z,22.14
2023-07-11T10:03:19.759Z,24.71
2023-07-11T10:04:19.845Z,33.71
2023-07-11T10:05:19.739Z,41.66
2023-07-11T10:06:22.918Z,38.05
2023-07-11T10:07:20.701Z,31.32
2023-07-11T10:08:19.672Z,31.89
2023-07-11T10:09:19.672Z,27.88
2023-07-11T10:10:19.685Z,28.47
2023-07-11T10:11:19.581Z,39.46
2023-07-11T10:12:19.532Z,34.46
2023-07-11T10:13:26.705Z,35.23
2023-07-11T10:14:20.521Z,30.72
2023-07-11T10:15:19.469Z,35.21
2023-07-11T10:16:19.366Z,35.57
2023-07-11T10:17:19.492Z,35.98
2023-07-11T10:18:19.405Z,32.26
2023-07-11T10:19:19.282Z,37.48
2023-07-11T10:20:19.969Z,40.43
2023-07-11T10:21:19.850Z,51.28
2023-07-11T10:22:19.179Z,37.00
2023-07-11T10:23:19.135Z,27.47
2023-07-11T10:24:19.115Z,26.78
2023-07-11T10:25:19.078Z,26.81
2023-07-11T10:26:19.088Z,36.83
2023-07-11T10:27:19.037Z,29.47
2023-07-11T10:28:19.010Z,26.89
2023-07-11T10:29:25.131Z,36.60
2023-07-11T10:30:19.942Z,36.60
2023-07-11T10:31:18.927Z,33.03
2023-07-11T10:32:18.951Z,30.80
2023-07-11T10:33:23.382Z,29.91
2023-07-11T10:34:19.860Z,26.01
2023-07-11T10:35:18.843Z,27.14
2023-07-11T10:36:18.805Z,31.49
2023-07-11T10:37:18.757Z,38.05
2023-07-11T10:38:18.767Z,40.04
2023-07-11T10:39:18.733Z,42.86
2023-07-11T10:40:18.665Z,40.04
2023-07-11T10:41:18.656Z,45.63
2023-07-11T10:42:18.595Z,45.24
2023-07-11T10:43:18.602Z,30.45
2023-07-11T10:44:18.672Z,29.51
2023-07-11T10:45:18.655Z,27.91
2023-07-11T10:46:18.667Z,33.51
2023-07-11T10:47:18.573Z,42.36
2023-07-11T10:48:18.562Z,42.42
2023-07-11T10:49:18.562Z,39.95
2023-07-11T10:50:18.546Z,44.90
2023-07-11T10:51:18.512Z,45.88
2023-07-11T10:52:18.509Z,42.44
2023-07-11T10:53:18.457Z,42.35
2023-07-11T10:54:18.459Z,36.23
2023-07-11T10:55:18.450Z,34.80
2023-07-11T10:56:20.414Z,29.42
2023-07-11T10:57:22.666Z,28.13
2023-07-11T10:58:19.681Z,29.46
2023-07-11T10:59:18.639Z,30.60
2023-07-11T11:00:18.603Z,34.82
2023-07-11T11:01:18.677Z,37.37
2023-07-11T11:02:18.637Z,43.31
2023-07-11T11:03:18.593Z,56.05
2023-07-11T11:04:18.529Z,52.41
2023-07-11T11:05:18.500Z,48.40
2023-07-11T11:06:18.452Z,41.30
2023-07-11T11:07:18.401Z,38.47
2023-07-11T11:08:18.342Z,36.99
2023-07-11T11:09:18.351Z,38.04
2023-07-11T11:10:18.277Z,38.15
2023-07-11T11:11:18.248Z,39.20
2023-07-11T11:12:18.179Z,36.46
2023-07-11T11:13:18.145Z,20.57
2023-07-11T11:14:18.212Z,12.20
2023-07-11T11:15:18.086Z,17.89
2023-07-11T11:16:18.048Z,27.84
2023-07-11T11:17:18.065Z,30.57
2023-07-11T11:18:17.978Z,23.17
2023-07-11T11:19:17.988Z,25.29
2023-07-11T11:20:17.981Z,31.11
2023-07-11T11:21:21.413Z,28.80
2023-07-11T11:22:18.799Z,28.84
2023-07-11T11:23:17.737Z,25.96
2023-07-11T11:24:17.718Z,24.82
2023-07-11T11:25:17.627Z,28.27
2023-07-11T11:26:17.579Z,30.57
2023-07-11T11:27:17.535Z,25.34
2023-07-11T11:28:17.493Z,25.00
2023-07-11T11:29:17.492Z,28.43
2023-07-11T11:30:17.407Z,33.47
2023-07-11T11:31:17.515Z,30.76
2023-07-11T11:32:17.300Z,38.29
2023-07-11T11:33:17.208Z,35.57
2023-07-11T11:34:17.175Z,38.58
2023-07-11T11:35:17.202Z,47.20
2023-07-11T11:36:17.069Z,32.85
2023-07-11T11:37:17.079Z,33.96
2023-07-11T11:38:17.064Z,39.15
2023-07-11T11:39:17.033Z,33.88
2023-07-11T11:40:17.105Z,34.85
2023-07-11T11:41:16.930Z,36.09
2023-07-11T11:42:16.910Z,39.43
2023-07-11T11:43:19.210Z,41.57
2023-07-11T11:51:16.466Z,42.03
2023-07-11T11:52:16.349Z,43.69
2023-07-11T11:53:18.353Z,45.81
2023-07-11T11:54:16.299Z,46.55
2023-07-11T11:55:16.243Z,49.54
2023-07-11T11:56:23.281Z,44.31
2023-07-11T11:57:17.164Z,44.33
2023-07-11T11:58:16.110Z,44.67
2023-07-11T11:59:16.072Z,45.55
2023-07-11T12:00:16.056Z,46.47
2023-07-11T12:01:15.986Z,55.60
2023-07-11T12:02:15.955Z,46.43
2023-07-11T12:03:15.883Z,42.68
2023-07-11T12:04:15.927Z,43.11
2023-07-11T12:05:15.866Z,51.03
2023-07-11T12:06:15.737Z,55.38
2023-07-11T12:07:15.663Z,46.79
2023-07-11T12:08:15.660Z,46.91
2023-07-11T12:09:15.593Z,47.70
2023-07-11T12:10:16.237Z,49.58
2023-07-11T12:11:15.476Z,49.04
2023-07-11T12:12:15.453Z,53.94
2023-07-11T12:13:15.409Z,66.89
2023-07-11T12:14:15.465Z,66.14
2023-07-11T12:15:15.394Z,61.46
2023-07-11T12:16:21.336Z,61.61
2023-07-11T12:17:16.387Z,61.76
2023-07-11T12:18:15.333Z,63.74
2023-07-11T12:19:15.320Z,69.43
2023-07-11T12:20:15.292Z,68.06
2023-07-11T12:21:15.311Z,61.21
2023-07-11T12:22:15.292Z,67.27
2023-07-11T12:23:29.925Z,77.40
2023-07-11T12:24:41.324Z,77.51
2023-07-11T12:25:16.250Z,67.83
2023-07-11T12:26:15.243Z,73.14
2023-07-11T12:27:15.221Z,80.04
2023-07-11T12:28:15.224Z,82.92
2023-07-11T12:29:15.177Z,94.20
2023-07-11T12:30:15.180Z,101.41
2023-07-11T12:31:15.093Z,97.55
2023-07-11T12:32:15.152Z,91.15
2023-07-11T12:33:15.081Z,86.35
2023-07-11T12:34:14.989Z,89.86
2023-07-11T12:35:15.214Z,84.98
2023-07-11T12:36:14.997Z,84.30
2023-07-11T12:37:14.904Z,93.14
2023-07-11T12:38:14.905Z,84.69
2023-07-11T12:39:14.887Z,76.64
2023-07-11T12:40:14.905Z,80.22
2023-07-11T12:41:14.869Z,89.46
2023-07-11T12:42:14.875Z,91.32
2023-07-11T12:43:14.809Z,95.59
2023-07-11T12:44:14.820Z,101.62
2023-07-11T12:45:14.773Z,111.64
2023-07-11T12:46:14.766Z,113.35